Findlay, OH

5:37 AM EDT on August 31, 2014 (GMT -0400)
Findlay | Change Station
CLOSE
Current Station
Airport
Location: Findlay,
Elevation: 810 ft
Nearby Weather Stations

Elev 810 ft 41.01 °N, 83.67 °W | Updated 44 minutes ago

Overcast
Overcast
72 °F
Feels Like 72 °F
N
9
Wind Variable Wind from SSW

Today
High -- | Low -- °F
--% Chance of Precip.
Yesterday
High -- | Low -- °F
Precip. -- in
7:00 AM 8:08 PM
Waxing Crescent, 29% visible
Pressure 29.94 in
Visibility 10.0 miles
Clouds Scattered Clouds 3300 ft
Mostly Cloudy 5500 ft
Overcast 9000 ft
Dew Point 66 °F
Humidity 81%
Rainfall 0.00 in
Snow Depth Not available.
UV 0 out of 12
Pollen 9.50 out of 12
Air Quality Not available.
Flu Activity Not available.
METAR KFDY 310853Z AUTO 20008KT 10SM SCT033 BKN055 OVC090 22/19 A2997 RMK AO2 SLP138 T02220189 58006

More Conditions Fewer Conditions

Pressure 29.94 in
Visibility 10.0 miles
Clouds Scattered Clouds 3300 ft
Mostly Cloudy 5500 ft
Overcast 9000 ft
Dew Point 66 °F
Humidity 81%
Rainfall 0.00 in
Snow Depth Not available.
UV 0 out of 12
Pollen 9.50 out of 12
Air Quality Not available.
Flu Activity Not available.
METAR KFDY 310853Z AUTO 20008KT 10SM SCT033 BKN055 OVC090 22/19 A2997 RMK AO2 SLP138 T02220189 58006

More Conditions Fewer Conditions

10-Day Weather Forecast

Almanac

Astronomy

Aug. 31, 2014 Rise Set
Actual Time 7:00 AM EDT 8:08 PM EDT
Civil Twilight 6:31 AM EDT 8:37 PM EDT
Nautical Twilight 5:58 AM EDT 9:10 PM EDT
Astronomical Twilight 5:22 AM EDT 9:46 PM EDT
Moon 12:48 PM EDT 11:19 PM EDT
Length of Visible Light 14h 05m
Length of Day
13h 08m
Tomorrow will be 2m 38s shorter.
Waxing Crescent, 29% of the Moon is Illuminated
Today
Waxing Crescent
Sep 2
First Quarter
Sep 8
Full
Sep 15
Last Quarter
Sep 24
New

Today's Extremes

State Highs State Lows

Community

WunderPhotos

Upload Photos

1,748,834 photos uploaded!

Nearby

Snow Depth

Station Depth Elevation
No new snow has been reported.

Earthquake Activity

City Distance Mag. Time & Date
No recent earthquake activity has been reported nearby.
Minimum magnitude displayed is 2.5.

Coastal Water Temperatures

Place Temperature
No Stations Reporting

Nearby Weather Stations